sensor_id;sensor_type;location;lat;lon;timestamp;pressure;altitude;pressure_sealevel;temperature;humidity
6899;BME280;3488;42.616;23.350;2023-02-03T00:01:54;62162.47;;;1.58;100.00
6899;BME280;3488;42.616;23.350;2023-02-03T00:04:21;62152.22;;;1.48;100.00
6899;BME280;3488;42.616;23.350;2023-02-03T00:06:48;62141.41;;;1.35;100.00
6899;BME280;3488;42.616;23.350;2023-02-03T00:09:17;62144.53;;;1.40;100.00
6899;BME280;3488;42.616;23.350;2023-02-03T00:11:45;62133.75;;;1.30;100.00
6899;BME280;3488;42.616;23.350;2023-02-03T00:14:12;62136.38;;;1.35;100.00
6899;BME280;3488;42.616;23.350;2023-02-03T00:16:39;62124.06;;;1.23;100.00
6899;BME280;3488;42.616;23.350;2023-02-03T00:19:06;62128.56;;;1.22;100.00
6899;BME280;3488;42.616;23.350;2023-02-03T00:21:33;62120.53;;;1.22;100.00
6899;BME280;3488;42.616;23.350;2023-02-03T00:24:00;62117.91;;;1.16;100.00
6899;BME280;3488;42.616;23.350;2023-02-03T00:26:28;62125.53;;;1.22;100.00
6899;BME280;3488;42.616;23.350;2023-02-03T00:28:58;62128.22;;;1.29;100.00
6899;BME280;3488;42.616;23.350;2023-02-03T00:31:25;62116.38;;;1.15;100.00
6899;BME280;3488;42.616;23.350;2023-02-03T00:33:56;62131.63;;;1.25;100.00
6899;BME280;3488;42.616;23.350;2023-02-03T00:36:23;62130.16;;;1.26;100.00
6899;BME280;3488;42.616;23.350;2023-02-03T00:38:50;62126.56;;;1.23;100.00
6899;BME280;3488;42.616;23.350;2023-02-03T00:41:18;62139.34;;;1.33;100.00
6899;BME280;3488;42.616;23.350;2023-02-03T00:43:46;62133.75;;;1.30;100.00
6899;BME280;3488;42.616;23.350;2023-02-03T00:46:13;62136.88;;;1.35;100.00
6899;BME280;3488;42.616;23.350;2023-02-03T00:48:40;62139.97;;;1.38;100.00
6899;BME280;3488;42.616;23.350;2023-02-03T00:51:07;62148.19;;;1.46;100.00
6899;BME280;3488;42.616;23.350;2023-02-03T00:53:34;62151.66;;;1.45;100.00
6899;BME280;3488;42.616;23.350;2023-02-03T00:56:01;62150.69;;;1.46;100.00
6899;BME280;3488;42.616;23.350;2023-02-03T00:58:29;62146.19;;;1.47;100.00
6899;BME280;3488;42.616;23.350;2023-02-03T01:00:57;62156.34;;;1.52;100.00
6899;BME280;3488;42.616;23.350;2023-02-03T01:03:24;62153.75;;;1.49;100.00
6899;BME280;3488;42.616;23.350;2023-02-03T01:05:51;62145.66;;;1.46;100.00
6899;BME280;3488;42.616;23.350;2023-02-03T01:08:18;62149.16;;;1.45;100.00
6899;BME280;3488;42.616;23.350;2023-02-03T01:10:48;62142.47;;;1.38;100.00
6899;BME280;3488;42.616;23.350;2023-02-03T01:13:15;62126.00;;;1.19;100.00
6899;BME280;3488;42.616;23.350;2023-02-03T01:15:47;62128.50;;;1.19;100.00
6899;BME280;3488;42.616;23.350;2023-02-03T01:18:15;62115.75;;;1.09;100.00
6899;BME280;3488;42.616;23.350;2023-02-03T01:20:42;62124.53;;;1.21;100.00
6899;BME280;3488;42.616;23.350;2023-02-03T01:23:09;62115.81;;;1.12;100.00
6899;BME280;3488;42.616;23.350;2023-02-03T01:25:36;62115.84;;;1.14;100.00
6899;BME280;3488;42.616;23.350;2023-02-03T01:28:04;62117.00;;;1.21;100.00
6899;BME280;3488;42.616;23.350;2023-02-03T01:30:31;62128.63;;;1.25;100.00
6899;BME280;3488;42.616;23.350;2023-02-03T01:32:58;62125.03;;;1.21;100.00
6899;BME280;3488;42.616;23.350;2023-02-03T01:35:26;62112.91;;;1.16;100.00
6899;BME280;3488;42.616;23.350;2023-02-03T01:37:53;62120.41;;;1.16;100.00
6899;BME280;3488;42.616;23.350;2023-02-03T01:40:20;62120.41;;;1.16;100.00
6899;BME280;3488;42.616;23.350;2023-02-03T01:42:47;62122.41;;;1.16;100.00
6899;BME280;3488;42.616;23.350;2023-02-03T01:45:14;62119.91;;;1.16;100.00
6899;BME280;3488;42.616;23.350;2023-02-03T01:47:45;62115.28;;;1.11;100.00
6899;BME280;3488;42.616;23.350;2023-02-03T01:50:16;62109.75;;;1.11;100.00
6899;BME280;3488;42.616;23.350;2023-02-03T01:52:48;62121.91;;;1.15;100.00
6899;BME280;3488;42.616;23.350;2023-02-03T01:55:20;62106.69;;;1.08;100.00
6899;BME280;3488;42.616;23.350;2023-02-03T01:57:53;62112.72;;;1.09;100.00
6899;BME280;3488;42.616;23.350;2023-02-03T02:00:22;62117.34;;;1.13;100.00
6899;BME280;3488;42.616;23.350;2023-02-03T02:02:49;62126.56;;;1.23;100.00
6899;BME280;3488;42.616;23.350;2023-02-03T02:05:23;62115.91;;;1.17;100.00
6899;BME280;3488;42.616;23.350;2023-02-03T02:07:53;62111.19;;;1.07;100.00
6899;BME280;3488;42.616;23.350;2023-02-03T02:10:20;62117.34;;;1.13;100.00
6899;BME280;3488;42.616;23.350;2023-02-03T02:12:47;62113.75;;;1.10;100.00
6899;BME280;3488;42.616;23.350;2023-02-03T02:15:14;62114.78;;;1.11;100.00
6899;BME280;3488;42.616;23.350;2023-02-03T02:17:55;62097.41;;;0.96;100.00
6899;BME280;3488;42.616;23.350;2023-02-03T02:23:42;62102.47;;;0.99;100.00
6899;BME280;3488;42.616;23.350;2023-02-03T02:26:44;62106.56;;;1.03;100.00
6899;BME280;3488;42.616;23.350;2023-02-03T02:32:17;62108.75;;;1.10;100.00
6899;BME280;3488;42.616;23.350;2023-02-03T02:34:57;62101.00;;;1.00;100.00
6899;BME280;3488;42.616;23.350;2023-02-03T02:37:36;62106.56;;;1.03;100.00
6899;BME280;3488;42.616;23.350;2023-02-03T02:40:09;62102.53;;;1.01;100.00
6899;BME280;3488;42.616;23.350;2023-02-03T02:42:49;62106.50;;;1.00;100.00
6899;BME280;3488;42.616;23.350;2023-02-03T02:45:24;62094.88;;;0.96;100.00
6899;BME280;3488;42.616;23.350;2023-02-03T02:47:59;62099.50;;;1.01;100.00
6899;BME280;3488;42.616;23.350;2023-02-03T02:50:32;62113.13;;;1.04;100.00
6899;BME280;3488;42.616;23.350;2023-02-03T02:53:01;62098.34;;;0.95;99.32
6899;BME280;3488;42.616;23.350;2023-02-03T02:55:31;62101.00;;;1.00;98.02
6899;BME280;3488;42.616;23.350;2023-02-03T02:58:02;62101.44;;;0.98;97.30
6899;BME280;3488;42.616;23.350;2023-02-03T03:00:33;62106.56;;;1.03;95.94
6899;BME280;3488;42.616;23.350;2023-02-03T03:03:14;62117.34;;;1.13;95.66
6899;BME280;3488;42.616;23.350;2023-02-03T03:05:45;62104.06;;;1.03;93.85
6899;BME280;3488;42.616;23.350;2023-02-03T03:08:15;62099.44;;;0.98;93.06
6899;BME280;3488;42.616;23.350;2023-02-03T03:10:45;62095.34;;;0.94;92.85
6899;BME280;3488;42.616;23.350;2023-02-03T03:13:18;62083.03;;;0.82;93.65
6899;BME280;3488;42.616;23.350;2023-02-03T03:15:47;62091.13;;;0.85;95.17
6899;BME280;3488;42.616;23.350;2023-02-03T03:18:20;62089.63;;;0.86;95.87
6899;BME280;3488;42.616;23.350;2023-02-03T03:20:50;62084.50;;;0.81;95.26
6899;BME280;3488;42.616;23.350;2023-02-03T03:23:21;62086.09;;;0.85;94.18
6899;BME280;3488;42.616;23.350;2023-02-03T03:25:55;62083.53;;;0.83;93.74
6899;BME280;3488;42.616;23.350;2023-02-03T03:28:36;62079.91;;;0.77;93.47
6899;BME280;3488;42.616;23.350;2023-02-03T03:31:07;62084.00;;;0.81;92.27
6899;BME280;3488;42.616;23.350;2023-02-03T03:33:35;62087.66;;;0.87;91.71
6899;BME280;3488;42.616;23.350;2023-02-03T03:36:11;62086.56;;;0.83;90.42
6899;BME280;3488;42.616;23.350;2023-02-03T03:38:42;62098.94;;;0.98;88.63
6899;BME280;3488;42.616;23.350;2023-02-03T03:41:16;62102.97;;;0.99;88.81
6899;BME280;3488;42.616;23.350;2023-02-03T03:43:46;62066.63;;;0.66;89.84
6899;BME280;3488;42.616;23.350;2023-02-03T03:46:18;62099.84;;;0.94;90.22
6899;BME280;3488;42.616;23.350;2023-02-03T03:48:51;62095.84;;;0.95;89.77
6899;BME280;3488;42.616;23.350;2023-02-03T03:51:22;62096.81;;;0.93;89.51
6899;BME280;3488;42.616;23.350;2023-02-03T03:53:52;62086.56;;;0.83;89.91
6899;BME280;3488;42.616;23.350;2023-02-03T03:56:26;62109.59;;;1.03;90.27
6899;BME280;3488;42.616;23.350;2023-02-03T03:58:57;62105.53;;;1.02;90.51
6899;BME280;3488;42.616;23.350;2023-02-03T04:01:26;62095.91;;;0.97;91.26
6899;BME280;3488;42.616;23.350;2023-02-03T04:03:58;62094.78;;;0.91;92.31
6899;BME280;3488;42.616;23.350;2023-02-03T04:06:26;62101.50;;;1.00;92.30
6899;BME280;3488;42.616;23.350;2023-02-03T04:08:55;62105.53;;;1.02;92.60
6899;BME280;3488;42.616;23.350;2023-02-03T04:11:22;62102.41;;;0.96;92.99
6899;BME280;3488;42.616;23.350;2023-02-03T04:14:07;62105.03;;;1.01;93.45
6899;BME280;3488;42.616;23.350;2023-02-03T04:16:34;62105.59;;;1.04;94.37
6899;BME280;3488;42.616;23.350;2023-02-03T04:19:03;62097.91;;;0.97;95.09
6899;BME280;3488;42.616;23.350;2023-02-03T04:21:30;62095.78;;;0.92;95.00
6899;BME280;3488;42.616;23.350;2023-02-03T04:23:57;62103.03;;;1.02;95.29
6899;BME280;3488;42.616;23.350;2023-02-03T04:26:24;62103.50;;;1.00;94.61
6899;BME280;3488;42.616;23.350;2023-02-03T04:28:51;62102.56;;;1.04;94.73
6899;BME280;3488;42.616;23.350;2023-02-03T04:31:18;62111.69;;;1.08;94.70
6899;BME280;3488;42.616;23.350;2023-02-03T04:33:45;62116.25;;;1.10;94.58
6899;BME280;3488;42.616;23.350;2023-02-03T04:36:14;62110.16;;;1.06;95.42
6899;BME280;3488;42.616;23.350;2023-02-03T04:38:41;62106.13;;;1.05;95.76
6899;BME280;3488;42.616;23.350;2023-02-03T04:41:08;62114.31;;;1.13;95.80
6899;BME280;3488;42.616;23.350;2023-02-03T04:43:35;62107.66;;;1.06;95.94
6899;BME280;3488;42.616;23.350;2023-02-03T04:46:01;62106.63;;;1.05;96.09
6899;BME280;3488;42.616;23.350;2023-02-03T04:48:28;62102.97;;;0.99;96.29
6899;BME280;3488;42.616;23.350;2023-02-03T04:51:00;62105.06;;;1.04;96.23
6899;BME280;3488;42.616;23.350;2023-02-03T04:53:29;62106.50;;;1.00;96.55
6899;BME280;3488;42.616;23.350;2023-02-03T04:55:56;62098.47;;;1.00;95.91
6899;BME280;3488;42.616;23.350;2023-02-03T04:58:24;62112.22;;;1.08;95.77
6899;BME280;3488;42.616;23.350;2023-02-03T05:00:52;62106.06;;;1.02;94.46
6899;BME280;3488;42.616;23.350;2023-02-03T05:03:19;62114.72;;;1.08;94.54
6899;BME280;3488;42.616;23.350;2023-02-03T05:05:46;62106.13;;;1.05;94.25
6899;BME280;3488;42.616;23.350;2023-02-03T05:08:13;62110.69;;;1.07;94.92
6899;BME280;3488;42.616;23.350;2023-02-03T05:10:41;62102.97;;;0.99;95.35
6899;BME280;3488;42.616;23.350;2023-02-03T05:13:08;62110.72;;;1.09;95.35
6899;BME280;3488;42.616;23.350;2023-02-03T05:15:35;62111.69;;;1.08;95.07
6899;BME280;3488;42.616;23.350;2023-02-03T05:18:02;62101.91;;;0.96;95.40
6899;BME280;3488;42.616;23.350;2023-02-03T05:20:29;62094.88;;;0.96;95.10
6899;BME280;3488;42.616;23.350;2023-02-03T05:22:56;62111.13;;;1.05;94.86
6899;BME280;3488;42.616;23.350;2023-02-03T05:25:23;62106.56;;;1.03;95.08
6899;BME280;3488;42.616;23.350;2023-02-03T05:27:52;62109.72;;;1.08;94.73
6899;BME280;3488;42.616;23.350;2023-02-03T05:30:18;62113.78;;;1.12;95.04
6899;BME280;3488;42.616;23.350;2023-02-03T05:32:45;62114.72;;;1.08;95.59
6899;BME280;3488;42.616;23.350;2023-02-03T05:35:12;62116.75;;;1.10;95.82
6899;BME280;3488;42.616;23.350;2023-02-03T05:37:39;62097.41;;;0.96;96.61
6899;BME280;3488;42.616;23.350;2023-02-03T05:40:07;62098.34;;;0.95;96.69
6899;BME280;3488;42.616;23.350;2023-02-03T05:42:53;62092.72;;;0.89;97.17
6899;BME280;3488;42.616;23.350;2023-02-03T05:45:20;62085.09;;;0.84;97.43
6899;BME280;3488;42.616;23.350;2023-02-03T05:47:47;62075.34;;;0.75;98.04
6899;BME280;3488;42.616;23.350;2023-02-03T05:50:14;62074.25;;;0.71;97.35
6899;BME280;3488;42.616;23.350;2023-02-03T05:52:41;62079.81;;;0.74;96.77
6899;BME280;3488;42.616;23.350;2023-02-03T05:55:09;62072.28;;;0.72;96.16
6899;BME280;3488;42.616;23.350;2023-02-03T05:57:36;62075.84;;;0.75;96.03
6899;BME280;3488;42.616;23.350;2023-02-03T06:00:06;62084.13;;;0.86;96.13
6899;BME280;3488;42.616;23.350;2023-02-03T06:02:33;62086.00;;;0.80;95.56
6899;BME280;3488;42.616;23.350;2023-02-03T06:05:02;62085.47;;;0.80;95.25
6899;BME280;3488;42.616;23.350;2023-02-03T06:07:29;62082.00;;;0.81;94.83
6899;BME280;3488;42.616;23.350;2023-02-03T06:09:56;62080.41;;;0.77;94.96
6899;BME280;3488;42.616;23.350;2023-02-03T06:12:23;62073.81;;;0.73;95.01
6899;BME280;3488;42.616;23.350;2023-02-03T06:14:50;62081.84;;;0.74;95.11
6899;BME280;3488;42.616;23.350;2023-02-03T06:17:19;62081.44;;;0.78;94.12
6899;BME280;3488;42.616;23.350;2023-02-03T06:19:48;62088.03;;;0.82;94.21
6899;BME280;3488;42.616;23.350;2023-02-03T06:22:15;62097.72;;;0.89;94.02
6899;BME280;3488;42.616;23.350;2023-02-03T06:24:42;62086.50;;;0.81;93.63
6899;BME280;3488;42.616;23.350;2023-02-03T06:27:10;62084.13;;;0.86;93.80
6899;BME280;3488;42.616;23.350;2023-02-03T06:29:37;62083.16;;;0.87;92.33
6899;BME280;3488;42.616;23.350;2023-02-03T06:32:04;62092.31;;;0.94;91.66
6899;BME280;3488;42.616;23.350;2023-02-03T06:34:33;62090.16;;;0.87;91.12
6899;BME280;3488;42.616;23.350;2023-02-03T06:36:59;62100.34;;;0.94;91.09
6899;BME280;3488;42.616;23.350;2023-02-03T06:39:26;62071.69;;;0.69;90.42
6899;BME280;3488;42.616;23.350;2023-02-03T06:41:53;62096.31;;;0.93;88.63
6899;BME280;3488;42.616;23.350;2023-02-03T06:44:22;62106.63;;;1.05;87.98
6899;BME280;3488;42.616;23.350;2023-02-03T06:46:49;62104.00;;;1.00;87.38
6899;BME280;3488;42.616;23.350;2023-02-03T06:49:16;62123.56;;;1.22;87.21
6899;BME280;3488;42.616;23.350;2023-02-03T06:51:45;62126.63;;;1.25;86.32
6899;BME280;3488;42.616;23.350;2023-02-03T06:54:12;62141.41;;;1.35;87.07
6899;BME280;3488;42.616;23.350;2023-02-03T06:56:40;62139.38;;;1.35;86.37
6899;BME280;3488;42.616;23.350;2023-02-03T06:59:07;62140.38;;;1.34;86.02
6899;BME280;3488;42.616;23.350;2023-02-03T07:01:34;62144.03;;;1.40;85.93
6899;BME280;3488;42.616;23.350;2023-02-03T07:04:01;62148.56;;;1.42;85.63
6899;BME280;3488;42.616;23.350;2023-02-03T07:06:29;62137.28;;;1.31;85.28
6899;BME280;3488;42.616;23.350;2023-02-03T07:09:01;62133.81;;;1.32;83.64
6899;BME280;3488;42.616;23.350;2023-02-03T07:11:29;62139.38;;;1.35;83.76
6899;BME280;3488;42.616;23.350;2023-02-03T07:13:56;62144.06;;;1.42;82.50
6899;BME280;3488;42.616;23.350;2023-02-03T07:16:24;62145.94;;;1.37;82.53
6899;BME280;3488;42.616;23.350;2023-02-03T07:18:53;62148.19;;;1.46;82.08
6899;BME280;3488;42.616;23.350;2023-02-03T07:21:21;62148.13;;;1.44;82.06
6899;BME280;3488;42.616;23.350;2023-02-03T07:23:48;62152.75;;;1.48;82.39
6899;BME280;3488;42.616;23.350;2023-02-03T07:26:17;62153.81;;;1.52;80.35
6899;BME280;3488;42.616;23.350;2023-02-03T07:28:47;62163.56;;;1.61;79.67
6899;BME280;3488;42.616;23.350;2023-02-03T07:31:14;62164.66;;;1.65;77.00
6899;BME280;3488;42.616;23.350;2023-02-03T07:33:41;62174.81;;;1.70;76.65
6899;BME280;3488;42.616;23.350;2023-02-03T07:36:09;62171.22;;;1.66;75.89
6899;BME280;3488;42.616;23.350;2023-02-03T07:38:37;62181.47;;;1.76;76.30
6899;BME280;3488;42.616;23.350;2023-02-03T07:41:04;62185.66;;;1.83;77.47
6899;BME280;3488;42.616;23.350;2023-02-03T07:43:33;62188.09;;;1.80;78.35
6899;BME280;3488;42.616;23.350;2023-02-03T07:46:01;62189.28;;;1.89;78.59
6899;BME280;3488;42.616;23.350;2023-02-03T07:48:32;62193.84;;;1.91;78.64
6899;BME280;3488;42.616;23.350;2023-02-03T07:50:59;62190.59;;;1.80;78.37
6899;BME280;3488;42.616;23.350;2023-02-03T07:53:30;62174.81;;;1.70;77.70
6899;BME280;3488;42.616;23.350;2023-02-03T07:56:01;62181.53;;;1.79;76.65
6899;BME280;3488;42.616;23.350;2023-02-03T07:58:28;62186.16;;;1.83;77.50
6899;BME280;3488;42.616;23.350;2023-02-03T08:00:57;62193.22;;;1.85;77.84
6899;BME280;3488;42.616;23.350;2023-02-03T08:03:25;62198.97;;;1.96;77.71
6899;BME280;3488;42.616;23.350;2023-02-03T08:05:52;62209.69;;;2.04;77.50
6899;BME280;3488;42.616;23.350;2023-02-03T08:08:19;62206.63;;;2.01;76.66
6899;BME280;3488;42.616;23.350;2023-02-03T08:10:46;62210.22;;;2.04;76.10
6899;BME280;3488;42.616;23.350;2023-02-03T08:13:13;62224.53;;;2.16;74.93
6899;BME280;3488;42.616;23.350;2023-02-03T08:15:41;62234.34;;;2.28;75.93
6899;BME280;3488;42.616;23.350;2023-02-03T08:18:09;62233.88;;;2.30;73.63
6899;BME280;3488;42.616;23.350;2023-02-03T08:20:37;62218.03;;;2.17;72.89
6899;BME280;3488;42.616;23.350;2023-02-03T08:23:04;62212.72;;;2.04;72.88
6899;BME280;3488;42.616;23.350;2023-02-03T08:25:31;62223.50;;;2.15;74.91
6899;BME280;3488;42.616;23.350;2023-02-03T08:27:59;62217.41;;;2.11;72.91
6899;BME280;3488;42.616;23.350;2023-02-03T08:30:28;62228.81;;;2.27;72.85
6899;BME280;3488;42.616;23.350;2023-02-03T08:32:55;62229.72;;;2.23;72.21
6899;BME280;3488;42.616;23.350;2023-02-03T08:35:24;62229.72;;;2.23;69.89
6899;BME280;3488;42.616;23.350;2023-02-03T08:37:52;62228.72;;;2.22;71.43
6899;BME280;3488;42.616;23.350;2023-02-03T08:40:21;62243.13;;;2.39;72.57
6899;BME280;3488;42.616;23.350;2023-02-03T08:42:48;62248.78;;;2.45;72.43
6899;BME280;3488;42.616;23.350;2023-02-03T08:45:15;62251.34;;;2.47;71.23
6899;BME280;3488;42.616;23.350;2023-02-03T08:47:51;62267.16;;;2.58;69.95
6899;BME280;3488;42.616;23.350;2023-02-03T08:50:20;62256.03;;;2.54;70.75
6899;BME280;3488;42.616;23.350;2023-02-03T08:52:48;62276.97;;;2.70;70.41
6899;BME280;3488;42.616;23.350;2023-02-03T08:55:15;62282.19;;;2.77;71.00
6899;BME280;3488;42.616;23.350;2023-02-03T08:57:42;62283.53;;;2.71;72.19
6899;BME280;3488;42.616;23.350;2023-02-03T09:00:10;62273.38;;;2.66;74.38
6899;BME280;3488;42.616;23.350;2023-02-03T09:02:37;62273.84;;;2.64;76.16
6899;BME280;3488;42.616;23.350;2023-02-03T09:05:04;62283.66;;;2.76;77.44
6899;BME280;3488;42.616;23.350;2023-02-03T09:07:35;62303.69;;;2.96;75.79
6899;BME280;3488;42.616;23.350;2023-02-03T09:10:04;62309.41;;;3.04;76.31
6899;BME280;3488;42.616;23.350;2023-02-03T09:12:31;62276.94;;;2.67;74.45
6899;BME280;3488;42.616;23.350;2023-02-03T09:14:57;62276.47;;;2.69;75.20
6899;BME280;3488;42.616;23.350;2023-02-03T09:17:24;62262.66;;;2.58;76.86
6899;BME280;3488;42.616;23.350;2023-02-03T09:19:52;62265.16;;;2.58;78.39
6899;BME280;3488;42.616;23.350;2023-02-03T09:22:21;62279.00;;;2.69;78.41
6899;BME280;3488;42.616;23.350;2023-02-03T09:24:48;62283.72;;;2.79;77.51
6899;BME280;3488;42.616;23.350;2023-02-03T09:27:17;62281.13;;;2.76;78.76
6899;BME280;3488;42.616;23.350;2023-02-03T09:29:44;62289.31;;;2.82;79.83
6899;BME280;3488;42.616;23.350;2023-02-03T09:32:11;62289.38;;;2.84;78.01
6899;BME280;3488;42.616;23.350;2023-02-03T09:34:38;62278.13;;;2.76;75.93
6899;BME280;3488;42.616;23.350;2023-02-03T09:37:05;62291.81;;;2.82;75.83
6899;BME280;3488;42.616;23.350;2023-02-03T09:39:32;62274.91;;;2.68;74.05
6899;BME280;3488;42.616;23.350;2023-02-03T09:42:13;62306.78;;;2.99;75.57
6899;BME280;3488;42.616;23.350;2023-02-03T09:44:49;62315.50;;;3.07;74.18
6899;BME280;3488;42.616;23.350;2023-02-03T09:47:22;62320.25;;;3.17;74.73
6899;BME280;3488;42.616;23.350;2023-02-03T09:49:54;62335.09;;;3.29;73.10
6899;BME280;3488;42.616;23.350;2023-02-03T09:52:24;62322.78;;;3.17;71.92
6899;BME280;3488;42.616;23.350;2023-02-03T09:54:55;62304.75;;;2.97;72.53
6899;BME280;3488;42.616;23.350;2023-02-03T09:57:26;62336.09;;;3.27;73.81
6899;BME280;3488;42.616;23.350;2023-02-03T09:59:56;62347.44;;;3.41;72.71
6899;BME280;3488;42.616;23.350;2023-02-03T10:02:36;62361.16;;;3.47;73.29
6899;BME280;3488;42.616;23.350;2023-02-03T10:05:17;62350.94;;;3.39;71.98
6899;BME280;3488;42.616;23.350;2023-02-03T10:07:52;62358.63;;;3.47;71.54
6899;BME280;3488;42.616;23.350;2023-02-03T10:10:32;62348.97;;;3.42;72.03
6899;BME280;3488;42.616;23.350;2023-02-03T10:13:11;62359.78;;;3.53;71.73
6899;BME280;3488;42.616;23.350;2023-02-03T10:16:03;62374.13;;;3.65;66.69
6899;BME280;3488;42.616;23.350;2023-02-03T10:18:44;62335.09;;;3.29;64.17
6899;BME280;3488;42.616;23.350;2023-02-03T10:21:18;62363.84;;;3.54;65.58
6899;BME280;3488;42.616;23.350;2023-02-03T10:23:47;62359.22;;;3.50;67.58
6899;BME280;3488;42.616;23.350;2023-02-03T10:26:18;62341.78;;;3.35;68.55
6899;BME280;3488;42.616;23.350;2023-02-03T10:28:52;62359.78;;;3.53;69.56
6899;BME280;3488;42.616;23.350;2023-02-03T10:31:24;62346.28;;;3.35;67.92
6899;BME280;3488;42.616;23.350;2023-02-03T10:33:58;62333.00;;;3.24;70.68
6899;BME280;3488;42.616;23.350;2023-02-03T10:36:32;62348.41;;;3.39;68.80
6899;BME280;3488;42.616;23.350;2023-02-03T10:39:16;62331.97;;;3.23;70.95
6899;BME280;3488;42.616;23.350;2023-02-03T10:41:45;62332.47;;;3.24;62.08
6899;BME280;3488;42.616;23.350;2023-02-03T10:44:13;62366.41;;;3.57;59.44
6899;BME280;3488;42.616;23.350;2023-02-03T10:46:43;62399.78;;;3.87;56.59
6899;BME280;3488;42.616;23.350;2023-02-03T10:49:11;62438.34;;;4.25;54.56
6899;BME280;3488;42.616;23.350;2023-02-03T10:51:42;62453.31;;;4.42;54.18
6899;BME280;3488;42.616;23.350;2023-02-03T10:54:26;62464.66;;;4.53;53.42
6899;BME280;3488;42.616;23.350;2023-02-03T10:56:54;62463.56;;;4.49;52.25
6899;BME280;3488;42.616;23.350;2023-02-03T10:59:28;62450.75;;;4.39;52.16
6899;BME280;3488;42.616;23.350;2023-02-03T11:01:57;62404.91;;;3.92;54.77
6899;BME280;3488;42.616;23.350;2023-02-03T11:04:26;62395.19;;;3.85;54.25
6899;BME280;3488;42.616;23.350;2023-02-03T11:06:55;62397.78;;;3.88;54.23
6899;BME280;3488;42.616;23.350;2023-02-03T11:09:35;62398.75;;;3.86;54.07
6899;BME280;3488;42.616;23.350;2023-02-03T11:12:09;62375.72;;;3.69;53.84
6899;BME280;3488;42.616;23.350;2023-02-03T11:14:38;62371.03;;;3.62;53.87
6899;BME280;3488;42.616;23.350;2023-02-03T11:17:13;62383.44;;;3.76;54.34
6899;BME280;3488;42.616;23.350;2023-02-03T11:19:43;62374.19;;;3.67;53.88
6899;BME280;3488;42.616;23.350;2023-02-03T11:22:12;62378.81;;;3.72;52.69
6899;BME280;3488;42.616;23.350;2023-02-03T11:24:41;62413.72;;;4.03;51.98
6899;BME280;3488;42.616;23.350;2023-02-03T11:27:12;62416.88;;;4.09;50.56
6899;BME280;3488;42.616;23.350;2023-02-03T11:29:42;62432.81;;;4.24;51.34
6899;BME280;3488;42.616;23.350;2023-02-03T11:32:19;62428.63;;;4.18;50.46
6899;BME280;3488;42.616;23.350;2023-02-03T11:34:55;62415.81;;;4.08;51.57
6899;BME280;3488;42.616;23.350;2023-02-03T11:37:28;62351.56;;;3.45;57.27
6899;BME280;3488;42.616;23.350;2023-02-03T11:40:12;62359.22;;;3.50;54.27
6899;BME280;3488;42.616;23.350;2023-02-03T11:42:59;62356.19;;;3.49;52.99
6899;BME280;3488;42.616;23.350;2023-02-03T11:45:28;62379.84;;;3.73;52.09
6899;BME280;3488;42.616;23.350;2023-02-03T11:48:00;62412.66;;;4.00;52.31
6899;BME280;3488;42.616;23.350;2023-02-03T11:50:29;62398.31;;;3.88;53.80
6899;BME280;3488;42.616;23.350;2023-02-03T11:53:20;62383.38;;;3.74;52.67
6899;BME280;3488;42.616;23.350;2023-02-03T11:55:58;62419.50;;;4.14;51.54
6899;BME280;3488;42.616;23.350;2023-02-03T11:59:00;62456.00;;;4.49;49.74
6899;BME280;3488;42.616;23.350;2023-02-03T12:01:46;62467.19;;;4.53;50.22
6899;BME280;3488;42.616;23.350;2023-02-03T12:04:32;62448.25;;;4.39;52.67
6899;BME280;3488;42.616;23.350;2023-02-03T12:07:35;62359.22;;;3.50;55.26
6899;BME280;3488;42.616;23.350;2023-02-03T12:10:20;62365.44;;;3.59;55.38
6899;BME280;3488;42.616;23.350;2023-02-03T12:12:57;62333.03;;;3.27;54.80
6899;BME280;3488;42.616;23.350;2023-02-03T12:15:44;62340.66;;;3.29;51.47
6899;BME280;3488;42.616;23.350;2023-02-03T12:18:22;62344.25;;;3.33;51.81
6899;BME280;3488;42.616;23.350;2023-02-03T12:21:06;62354.06;;;3.45;51.65
6899;BME280;3488;42.616;23.350;2023-02-03T12:23:45;62386.97;;;3.77;51.25
6899;BME280;3488;42.616;23.350;2023-02-03T12:26:20;62396.75;;;3.87;50.64
6899;BME280;3488;42.616;23.350;2023-02-03T12:28:55;62409.09;;;3.99;49.60
6899;BME280;3488;42.616;23.350;2023-02-03T12:31:29;62422.47;;;4.12;50.52
6899;BME280;3488;42.616;23.350;2023-02-03T12:34:05;62457.91;;;4.44;50.51
6899;BME280;3488;42.616;23.350;2023-02-03T12:36:39;62396.28;;;3.89;49.83
6899;BME280;3488;42.616;23.350;2023-02-03T12:39:13;62400.91;;;3.93;49.49
6899;BME280;3488;42.616;23.350;2023-02-03T12:41:44;62406.97;;;3.94;49.04
6899;BME280;3488;42.616;23.350;2023-02-03T12:44:18;62376.69;;;3.67;49.86
6899;BME280;3488;42.616;23.350;2023-02-03T12:47:24;62387.53;;;3.80;50.18
6899;BME280;3488;42.616;23.350;2023-02-03T12:49:56;62376.75;;;3.70;50.87
6899;BME280;3488;42.616;23.350;2023-02-03T12:52:30;62375.09;;;3.63;50.55
6899;BME280;3488;42.616;23.350;2023-02-03T12:55:07;62368.06;;;3.64;51.50
6899;BME280;3488;42.616;23.350;2023-02-03T12:57:45;62372.53;;;3.61;51.72
6899;BME280;3488;42.616;23.350;2023-02-03T13:00:27;62344.88;;;3.38;52.58
6899;BME280;3488;42.616;23.350;2023-02-03T13:03:05;62366.34;;;3.54;52.02
6899;BME280;3488;42.616;23.350;2023-02-03T13:05:40;62343.28;;;3.34;52.87
6899;BME280;3488;42.616;23.350;2023-02-03T13:08:17;62334.47;;;3.23;53.19
6899;BME280;3488;42.616;23.350;2023-02-03T13:10:51;62332.94;;;3.22;53.55
6899;BME280;3488;42.616;23.350;2023-02-03T13:13:28;62322.72;;;3.14;54.07
6899;BME280;3488;42.616;23.350;2023-02-03T13:15:57;62322.16;;;3.11;54.26
6899;BME280;3488;42.616;23.350;2023-02-03T13:18:30;62318.66;;;3.13;54.12
6899;BME280;3488;42.616;23.350;2023-02-03T13:20:58;62324.88;;;3.21;54.42
6899;BME280;3488;42.616;23.350;2023-02-03T13:23:27;62311.41;;;3.03;53.97
6899;BME280;3488;42.616;23.350;2023-02-03T13:26:09;62311.91;;;3.04;54.82
6899;BME280;3488;42.616;23.350;2023-02-03T13:29:03;62311.34;;;3.01;55.16
6899;BME280;3488;42.616;23.350;2023-02-03T13:31:42;62318.66;;;3.13;56.46
6899;BME280;3488;42.616;23.350;2023-02-03T13:34:36;62303.69;;;2.96;59.51
6899;BME280;3488;42.616;23.350;2023-02-03T13:40:13;62297.03;;;2.89;61.68
6899;BME280;3488;42.616;23.350;2023-02-03T13:42:46;62293.94;;;2.86;62.24
6899;BME280;3488;42.616;23.350;2023-02-03T13:45:24;62307.81;;;3.00;59.04
6899;BME280;3488;42.616;23.350;2023-02-03T13:47:53;62319.63;;;3.11;56.78
6899;BME280;3488;42.616;23.350;2023-02-03T13:50:24;62323.28;;;3.17;56.89